createdAt,value
2018-11-06T00:00:33.001Z,18.70
2018-11-06T00:03:06.910Z,18.70
2018-11-06T00:05:35.523Z,18.60
2018-11-06T00:08:04.122Z,18.70
2018-11-06T00:10:34.126Z,18.60
2018-11-06T00:13:02.725Z,18.60
2018-11-06T00:15:31.286Z,18.60
2018-11-06T00:17:59.825Z,18.60
2018-11-06T00:20:28.406Z,18.60
2018-11-06T00:22:56.966Z,18.60
2018-11-06T00:25:25.547Z,18.60
2018-11-06T00:27:54.064Z,18.60
2018-11-06T00:30:22.628Z,18.60
2018-11-06T00:32:51.267Z,18.60
2018-11-06T00:35:19.810Z,18.60
2018-11-06T00:37:48.428Z,18.60
2018-11-06T00:40:16.943Z,18.60
2018-11-06T00:42:46.048Z,18.50
2018-11-06T00:45:15.649Z,18.50
2018-11-06T00:47:44.201Z,18.50
2018-11-06T00:50:13.552Z,18.60
2018-11-06T00:52:42.971Z,18.50
2018-11-06T00:55:11.738Z,18.50
2018-11-06T00:57:42.092Z,18.50
2018-11-06T01:00:13.294Z,18.50
2018-11-06T01:02:41.881Z,18.50
2018-11-06T01:05:11.635Z,18.50
2018-11-06T01:07:40.215Z,18.50
2018-11-06T01:10:09.457Z,18.50
2018-11-06T01:12:38.382Z,18.50
2018-11-06T01:15:08.737Z,18.50
2018-11-06T01:17:37.339Z,18.50
2018-11-06T01:20:08.722Z,18.50
2018-11-06T01:22:37.420Z,18.50
2018-11-06T01:25:07.242Z,18.50
2018-11-06T01:27:35.945Z,18.50
2018-11-06T01:30:06.211Z,18.50
2018-11-06T01:32:34.743Z,18.50
2018-11-06T01:35:03.684Z,18.50
2018-11-06T01:37:33.786Z,18.50
2018-11-06T01:40:02.345Z,18.40
2018-11-06T01:42:31.507Z,18.50
2018-11-06T01:45:00.070Z,18.50
2018-11-06T01:47:28.668Z,18.40
2018-11-06T01:49:57.246Z,18.40
2018-11-06T01:52:25.830Z,18.40
2018-11-06T01:54:54.635Z,18.50
2018-11-06T01:57:23.334Z,18.40
2018-11-06T01:59:51.886Z,18.40
2018-11-06T02:02:20.490Z,18.40
2018-11-06T02:04:49.293Z,18.40
2018-11-06T02:07:17.835Z,18.40
2018-11-06T02:09:47.010Z,18.40
2018-11-06T02:12:15.580Z,18.40
2018-11-06T02:14:44.915Z,18.40
2018-11-06T02:17:13.456Z,18.40
2018-11-06T02:19:41.996Z,18.40
2018-11-06T02:22:10.556Z,18.40
2018-11-06T02:24:39.142Z,18.40
2018-11-06T02:27:07.772Z,18.40
2018-11-06T02:29:36.302Z,18.40
2018-11-06T02:32:05.139Z,18.40
2018-11-06T02:34:35.067Z,18.40
2018-11-06T02:37:04.142Z,18.40
2018-11-06T02:39:32.733Z,18.40
2018-11-06T02:42:01.285Z,18.40
2018-11-06T02:44:29.862Z,18.40
2018-11-06T02:46:59.145Z,18.40
2018-11-06T02:49:27.721Z,18.40
2018-11-06T02:51:57.021Z,18.40
2018-11-06T02:54:25.826Z,18.40
2018-11-06T02:56:54.384Z,18.30
2018-11-06T02:59:22.923Z,18.40
2018-11-06T03:01:51.850Z,18.30
2018-11-06T03:04:20.365Z,18.30
2018-11-06T03:06:48.964Z,18.30
2018-11-06T03:09:18.409Z,18.30
2018-11-06T03:11:46.990Z,18.30
2018-11-06T03:14:15.615Z,18.30
2018-11-06T03:16:44.211Z,18.30
2018-11-06T03:19:12.926Z,18.30
2018-11-06T03:21:41.488Z,18.30
2018-11-06T03:24:10.078Z,18.30
2018-11-06T03:26:38.649Z,18.30
2018-11-06T03:29:07.212Z,18.30
2018-11-06T03:31:35.755Z,18.30
2018-11-06T03:34:05.018Z,18.30
2018-11-06T03:36:33.692Z,18.30
2018-11-06T03:39:02.272Z,18.30
2018-11-06T03:41:30.874Z,18.30
2018-11-06T03:44:00.031Z,18.20
2018-11-06T03:46:28.653Z,18.30
2018-11-06T03:48:57.189Z,18.20
2018-11-06T03:51:25.794Z,18.30
2018-11-06T03:53:54.613Z,18.30
2018-11-06T03:56:23.165Z,18.20
2018-11-06T03:58:51.735Z,18.20
2018-11-06T04:01:20.279Z,18.20
2018-11-06T04:03:48.880Z,18.20
2018-11-06T04:06:17.462Z,18.20
2018-11-06T04:08:46.041Z,18.20
2018-11-06T04:11:14.636Z,18.20
2018-11-06T04:13:43.180Z,18.20
2018-11-06T04:16:13.449Z,18.20
2018-11-06T04:18:42.140Z,18.20
2018-11-06T04:21:10.720Z,18.20
2018-11-06T04:23:39.281Z,18.20
2018-11-06T04:26:07.981Z,18.20
2018-11-06T04:28:36.562Z,18.20
2018-11-06T04:31:05.166Z,18.20
2018-11-06T04:33:33.694Z,18.20
2018-11-06T04:36:02.266Z,18.20
2018-11-06T04:38:30.824Z,18.20
2018-11-06T04:40:59.386Z,18.10
2018-11-06T04:43:27.974Z,18.20
2018-11-06T04:45:56.508Z,18.20
2018-11-06T04:48:25.128Z,18.20
2018-11-06T04:50:53.716Z,18.10
2018-11-06T04:53:22.269Z,18.10
2018-11-06T04:55:50.865Z,18.10
2018-11-06T04:58:19.389Z,18.10
2018-11-06T05:00:47.929Z,18.10
2018-11-06T05:03:16.482Z,18.10
2018-11-06T05:05:45.039Z,18.10
2018-11-06T05:08:13.571Z,18.10
2018-11-06T05:10:42.612Z,18.10
2018-11-06T05:13:11.158Z,18.10
2018-11-06T05:15:39.733Z,18.10
2018-11-06T05:18:08.302Z,18.10
2018-11-06T05:20:36.875Z,18.10
2018-11-06T05:23:05.475Z,18.10
2018-11-06T05:25:34.595Z,18.10
2018-11-06T05:28:03.117Z,18.10
2018-11-06T05:30:31.670Z,18.10
2018-11-06T05:33:00.335Z,18.10
2018-11-06T05:35:28.939Z,18.10
2018-11-06T05:37:57.504Z,18.00
2018-11-06T05:40:37.210Z,18.00
2018-11-06T05:43:06.070Z,18.10
2018-11-06T05:45:34.682Z,18.00
2018-11-06T05:48:03.211Z,18.00
2018-11-06T05:50:31.714Z,18.00
2018-11-06T05:53:00.335Z,18.00
2018-11-06T05:55:29.117Z,18.00
2018-11-06T05:57:57.702Z,18.00
2018-11-06T06:00:26.268Z,18.00
2018-11-06T06:02:54.811Z,18.00
2018-11-06T06:05:23.366Z,18.00
2018-11-06T06:07:51.929Z,18.00
2018-11-06T06:10:20.499Z,18.00
2018-11-06T06:12:49.055Z,18.00
2018-11-06T06:15:17.658Z,18.00
2018-11-06T06:17:46.452Z,18.00
2018-11-06T06:20:14.999Z,17.10
2018-11-06T06:22:43.626Z,13.60
2018-11-06T06:25:12.214Z,11.10
2018-11-06T06:27:40.825Z,9.40
2018-11-06T06:30:12.381Z,8.20
2018-11-06T06:35:38.090Z,6.80
2018-11-06T06:38:06.721Z,6.40
2018-11-06T06:40:35.453Z,6.20
2018-11-06T06:43:04.134Z,6.10
2018-11-06T06:45:32.723Z,6.10
2018-11-06T06:48:01.358Z,6.00
2018-11-06T06:50:29.930Z,6.00
2018-11-06T06:52:59.177Z,6.00
2018-11-06T06:55:27.796Z,6.00
2018-11-06T06:57:56.554Z,6.00
2018-11-06T07:00:25.269Z,6.10
2018-11-06T07:02:54.001Z,6.00
2018-11-06T07:05:23.603Z,6.10
2018-11-06T07:07:52.338Z,6.10
2018-11-06T07:10:22.272Z,6.20
2018-11-06T07:12:51.395Z,6.20
2018-11-06T07:15:22.041Z,6.20
2018-11-06T07:17:51.478Z,6.30
2018-11-06T07:20:21.567Z,6.20
2018-11-06T07:22:50.184Z,6.20
2018-11-06T07:25:19.131Z,6.10
2018-11-06T07:27:48.398Z,6.10
2018-11-06T07:30:18.303Z,6.10
2018-11-06T07:32:47.173Z,6.10
2018-11-06T07:35:16.638Z,6.20
2018-11-06T07:37:45.703Z,6.30
2018-11-06T07:40:17.009Z,6.30
2018-11-06T07:42:45.899Z,6.40
2018-11-06T07:45:23.454Z,6.40
2018-11-06T07:47:52.458Z,6.50
2018-11-06T07:50:21.302Z,6.60
2018-11-06T07:52:50.195Z,6.70
2018-11-06T07:55:19.511Z,6.80
2018-11-06T07:57:48.344Z,6.90
2018-11-06T08:00:23.734Z,7.10
2018-11-06T08:02:52.602Z,7.20
2018-11-06T08:05:21.695Z,7.40
2018-11-06T08:07:51.415Z,7.50
2018-11-06T08:10:20.238Z,7.70
2018-11-06T08:12:50.623Z,7.90
2018-11-06T08:15:19.538Z,8.10
2018-11-06T08:17:48.467Z,8.40
2018-11-06T08:20:17.337Z,8.60
2018-11-06T08:22:46.157Z,8.80
2018-11-06T08:25:15.846Z,9.00
2018-11-06T08:27:45.348Z,9.20
2018-11-06T08:30:14.527Z,9.40
2018-11-06T08:32:43.751Z,9.60
2018-11-06T08:35:14.276Z,9.60
2018-11-06T08:37:44.415Z,9.50
2018-11-06T08:40:14.877Z,9.50
2018-11-06T08:42:44.270Z,9.70
2018-11-06T08:45:14.316Z,9.80
2018-11-06T08:47:44.060Z,10.00
2018-11-06T08:50:16.037Z,10.10
2018-11-06T08:52:46.350Z,10.30
2018-11-06T08:55:15.757Z,10.50
2018-11-06T08:57:45.107Z,10.60
2018-11-06T09:00:15.721Z,10.80
2018-11-06T09:02:45.873Z,10.90
2018-11-06T09:05:16.500Z,11.10
2018-11-06T09:07:45.397Z,11.30
2018-11-06T09:10:15.093Z,11.50
2018-11-06T09:12:43.890Z,11.60
2018-11-06T09:15:14.901Z,11.70
2018-11-06T09:17:43.776Z,11.70
2018-11-06T09:20:17.306Z,11.80
2018-11-06T09:22:46.339Z,12.10
2018-11-06T09:25:16.649Z,12.20
2018-11-06T09:27:45.496Z,12.50
2018-11-06T09:30:16.298Z,12.70
2018-11-06T09:32:44.920Z,12.90
2018-11-06T09:35:14.086Z,13.10
2018-11-06T09:37:43.428Z,13.60
2018-11-06T09:40:16.890Z,13.70
2018-11-06T09:42:45.678Z,13.70
2018-11-06T09:45:14.809Z,13.90
2018-11-06T09:47:43.636Z,14.30
2018-11-06T09:50:14.228Z,14.70
2018-11-06T09:52:43.622Z,15.70
2018-11-06T09:55:12.890Z,16.20
2018-11-06T09:57:41.703Z,16.00
2018-11-06T10:00:13.756Z,16.10
2018-11-06T10:02:42.582Z,15.80
2018-11-06T10:05:12.153Z,15.40
2018-11-06T10:07:40.925Z,15.40
2018-11-06T10:10:11.502Z,15.50
2018-11-06T10:12:40.555Z,15.80
2018-11-06T10:15:11.455Z,15.80
2018-11-06T10:17:41.021Z,15.70
2018-11-06T10:20:10.552Z,15.50
2018-11-06T10:22:39.304Z,15.30
2018-11-06T10:25:08.532Z,15.00
2018-11-06T10:27:37.938Z,14.80
2018-11-06T10:30:09.042Z,14.70
2018-11-06T10:32:37.868Z,14.60
2018-11-06T10:35:07.003Z,14.60
2018-11-06T10:37:35.834Z,14.70
2018-11-06T10:40:06.254Z,14.90
2018-11-06T10:42:34.996Z,15.20
2018-11-06T10:45:03.777Z,15.30
2018-11-06T10:47:32.472Z,15.20
2018-11-06T10:50:01.242Z,15.10
2018-11-06T10:52:29.986Z,15.00
2018-11-06T10:54:58.779Z,15.00
2018-11-06T10:57:27.582Z,15.20
2018-11-06T10:59:56.378Z,15.20
2018-11-06T11:02:30.432Z,15.30
2018-11-06T11:04:59.256Z,15.50
2018-11-06T11:07:28.007Z,15.60
2018-11-06T11:09:56.725Z,15.90
2018-11-06T11:12:25.697Z,16.20
2018-11-06T11:14:54.457Z,16.50
2018-11-06T11:17:23.220Z,16.70
2018-11-06T11:19:51.934Z,16.80
2018-11-06T11:22:20.725Z,17.00
2018-11-06T11:24:49.446Z,17.30
2018-11-06T11:27:18.215Z,17.60
2018-11-06T11:29:46.999Z,17.80
2018-11-06T11:32:15.666Z,18.00
2018-11-06T11:34:44.569Z,18.30
2018-11-06T11:37:13.344Z,18.40
2018-11-06T11:39:42.000Z,18.30
2018-11-06T11:42:10.583Z,18.00
2018-11-06T11:44:39.210Z,17.80
2018-11-06T11:47:07.827Z,17.40
2018-11-06T11:49:36.470Z,17.20
2018-11-06T11:52:05.152Z,17.10
2018-11-06T11:54:33.770Z,17.00
2018-11-06T11:57:02.366Z,17.10
2018-11-06T11:59:31.034Z,17.00
2018-11-06T12:01:59.663Z,17.20
2018-11-06T12:04:28.317Z,17.30
2018-11-06T12:06:57.606Z,17.30
2018-11-06T12:09:26.214Z,17.50
2018-11-06T12:11:54.858Z,17.40
2018-11-06T12:14:23.603Z,17.40
2018-11-06T12:16:52.294Z,17.60
2018-11-06T12:19:20.990Z,17.60
2018-11-06T12:21:49.723Z,17.30
2018-11-06T12:24:18.578Z,17.20
2018-11-06T12:26:47.265Z,17.40
2018-11-06T12:29:16.014Z,17.60
2018-11-06T12:31:44.702Z,17.80
2018-11-06T12:34:13.492Z,18.00
2018-11-06T12:36:42.232Z,18.20
2018-11-06T12:39:11.793Z,18.40
2018-11-06T12:41:40.643Z,18.30
2018-11-06T12:44:09.974Z,18.30
2018-11-06T12:46:39.645Z,18.00
2018-11-06T12:49:08.455Z,17.70
2018-11-06T12:51:37.204Z,17.60
2018-11-06T12:54:06.263Z,17.60
2018-11-06T12:56:35.405Z,17.60
2018-11-06T12:59:04.247Z,17.60
2018-11-06T13:01:33.124Z,17.50
2018-11-06T13:04:01.855Z,17.60
2018-11-06T13:06:31.387Z,17.60
2018-11-06T13:09:00.087Z,17.50
2018-11-06T13:11:28.849Z,17.40
2018-11-06T13:13:57.496Z,17.40
2018-11-06T13:16:26.247Z,17.30
2018-11-06T13:18:55.040Z,17.20
2018-11-06T13:21:23.800Z,17.20
2018-11-06T13:23:52.509Z,17.20
2018-11-06T13:26:21.266Z,17.20
2018-11-06T13:28:49.877Z,17.20
2018-11-06T13:31:18.539Z,17.20
2018-11-06T13:33:47.225Z,17.20
2018-11-06T13:36:15.896Z,17.20
2018-11-06T13:38:44.562Z,17.30
2018-11-06T13:48:11.815Z,17.60
2018-11-06T13:50:40.422Z,17.60
2018-11-06T13:53:09.076Z,17.50
2018-11-06T13:55:37.831Z,17.60
2018-11-06T13:58:06.652Z,17.70
2018-11-06T14:00:35.405Z,17.70
2018-11-06T14:03:04.137Z,17.80
2018-11-06T14:05:32.855Z,17.80
2018-11-06T14:08:01.558Z,17.80
2018-11-06T14:10:30.314Z,17.60
2018-11-06T14:12:59.018Z,17.40
2018-11-06T14:15:27.759Z,17.10
2018-11-06T14:17:56.552Z,17.00
2018-11-06T14:20:25.255Z,16.90
2018-11-06T14:22:53.998Z,16.80
2018-11-06T14:25:22.826Z,16.60
2018-11-06T14:27:51.595Z,16.60
2018-11-06T14:30:20.514Z,16.50
2018-11-06T14:32:49.229Z,16.50
2018-11-06T14:35:18.791Z,16.40
2018-11-06T14:37:47.911Z,16.30
2018-11-06T14:40:19.227Z,16.20
2018-11-06T14:42:48.364Z,16.00
2018-11-06T14:45:18.746Z,15.90
2018-11-06T14:47:47.674Z,15.70
2018-11-06T14:50:16.357Z,15.60
2018-11-06T14:52:45.104Z,15.40
2018-11-06T14:55:14.958Z,15.30
2018-11-06T14:57:43.654Z,15.20
2018-11-06T15:00:19.614Z,15.10
2018-11-06T15:02:50.636Z,15.00
2018-11-06T15:05:29.387Z,14.80
2018-11-06T15:07:58.052Z,14.70
2018-11-06T15:10:26.769Z,14.60
2018-11-06T15:12:55.528Z,14.50
2018-11-06T15:15:24.283Z,14.40
2018-11-06T15:17:53.136Z,14.30
2018-11-06T15:20:22.939Z,14.20
2018-11-06T15:22:51.677Z,14.10
2018-11-06T15:25:20.473Z,14.00
2018-11-06T15:27:49.305Z,13.90
2018-11-06T15:30:18.735Z,13.80
2018-11-06T15:33:02.219Z,13.70
2018-11-06T15:35:31.881Z,13.60
2018-11-06T15:38:00.673Z,13.40
2018-11-06T15:40:29.561Z,13.30
2018-11-06T15:42:58.215Z,13.20
2018-11-06T15:45:26.945Z,13.10
2018-11-06T15:47:55.659Z,13.00
2018-11-06T15:50:24.365Z,12.90
2018-11-06T15:52:52.986Z,12.80
2018-11-06T15:55:21.834Z,12.70
2018-11-06T15:57:50.605Z,12.60
2018-11-06T16:00:21.093Z,12.50
2018-11-06T16:02:49.964Z,12.40
2018-11-06T16:05:18.726Z,12.30
2018-11-06T16:07:47.760Z,12.20
2018-11-06T16:10:17.631Z,12.10
2018-11-06T16:12:46.835Z,12.00
2018-11-06T16:15:15.880Z,11.90
2018-11-06T16:17:44.616Z,11.80
2018-11-06T16:20:14.654Z,11.80
2018-11-06T16:22:47.499Z,11.70
2018-11-06T16:25:28.486Z,11.60
2018-11-06T16:28:05.788Z,11.50
2018-11-06T16:30:47.026Z,11.50
2018-11-06T16:33:21.598Z,11.40
2018-11-06T16:35:57.403Z,11.60
2018-11-06T16:38:32.910Z,12.80
2018-11-06T16:41:12.056Z,13.90
2018-11-06T16:43:44.292Z,14.90
2018-11-06T16:46:19.505Z,15.70
2018-11-06T16:48:53.665Z,16.30
2018-11-06T16:51:30.799Z,16.80
2018-11-06T16:54:05.505Z,17.10
2018-11-06T16:56:47.933Z,17.40
2018-11-06T16:59:20.218Z,17.60
2018-11-06T17:01:53.819Z,17.80
2018-11-06T17:04:36.543Z,17.90
2018-11-06T17:07:09.248Z,18.00
2018-11-06T17:09:54.173Z,18.10
2018-11-06T17:12:28.722Z,18.20
2018-11-06T17:15:04.900Z,18.20
2018-11-06T17:17:39.388Z,18.20
2018-11-06T17:20:20.551Z,18.30
2018-11-06T17:22:57.110Z,18.30
2018-11-06T17:25:42.832Z,18.30
2018-11-06T17:28:12.638Z,18.30
2018-11-06T17:30:41.297Z,18.40
2018-11-06T17:33:10.182Z,18.40
2018-11-06T17:35:41.101Z,18.40
2018-11-06T17:38:09.822Z,18.40
2018-11-06T17:40:38.449Z,18.40
2018-11-06T17:43:07.143Z,18.40
2018-11-06T17:45:35.857Z,18.40
2018-11-06T17:48:04.503Z,18.50
2018-11-06T17:50:34.085Z,18.50
2018-11-06T17:53:03.101Z,18.50
2018-11-06T17:55:31.886Z,18.50
2018-11-06T17:58:00.467Z,18.50
2018-11-06T18:00:29.065Z,18.50
2018-11-06T18:02:57.652Z,18.50
2018-11-06T18:05:26.633Z,18.50
2018-11-06T18:07:55.332Z,18.50
2018-11-06T18:10:23.936Z,18.50
2018-11-06T18:12:52.470Z,18.50
2018-11-06T18:15:21.494Z,18.50
2018-11-06T18:17:50.175Z,18.50
2018-11-06T18:20:18.724Z,18.60
2018-11-06T18:22:47.420Z,18.60
2018-11-06T18:25:16.620Z,18.60
2018-11-06T18:27:45.233Z,18.60
2018-11-06T18:30:15.820Z,18.60
2018-11-06T18:32:44.476Z,18.70
2018-11-06T18:35:14.306Z,18.70
2018-11-06T18:37:43.205Z,18.70
2018-11-06T18:40:15.128Z,18.70
2018-11-06T18:42:44.538Z,18.80
2018-11-06T18:45:13.940Z,18.80
2018-11-06T18:47:42.647Z,18.80
2018-11-06T18:50:12.889Z,18.90
2018-11-06T18:52:42.719Z,18.90
2018-11-06T18:55:11.622Z,18.90
2018-11-06T18:57:40.226Z,18.90
2018-11-06T19:00:12.471Z,18.90
2018-11-06T19:02:41.705Z,18.90
2018-11-06T19:05:10.592Z,18.90
2018-11-06T19:07:39.176Z,18.90
2018-11-06T19:10:10.335Z,18.90
2018-11-06T19:12:41.408Z,19.00
2018-11-06T19:15:13.491Z,18.90
2018-11-06T19:17:42.764Z,18.90
2018-11-06T19:20:14.316Z,18.90
2018-11-06T19:22:47.954Z,18.80
2018-11-06T19:25:16.627Z,18.80
2018-11-06T19:27:45.215Z,18.80
2018-11-06T19:30:16.466Z,18.70
2018-11-06T19:32:45.048Z,18.70
2018-11-06T19:35:15.658Z,18.70
2018-11-06T19:37:44.504Z,18.70
2018-11-06T19:40:15.633Z,18.70
2018-11-06T19:42:45.186Z,18.70
2018-11-06T19:45:14.245Z,18.70
2018-11-06T19:47:42.883Z,18.70
2018-11-06T19:50:13.375Z,18.70
2018-11-06T19:52:42.066Z,18.70
2018-11-06T19:55:12.871Z,18.70
2018-11-06T19:57:41.726Z,18.60
2018-11-06T20:00:20.445Z,18.60
2018-11-06T20:02:51.520Z,18.60
2018-11-06T20:05:21.547Z,18.60
2018-11-06T20:07:51.597Z,18.60
2018-11-06T20:10:21.855Z,18.60
2018-11-06T20:12:51.534Z,18.60
2018-11-06T20:15:20.314Z,18.60
2018-11-06T20:17:49.091Z,18.70
2018-11-06T20:20:24.047Z,18.70
2018-11-06T20:22:53.594Z,18.70
2018-11-06T20:25:22.505Z,18.70
2018-11-06T20:27:51.078Z,18.70
2018-11-06T20:30:21.980Z,18.70
2018-11-06T20:32:51.088Z,18.70
2018-11-06T20:35:20.021Z,18.70
2018-11-06T20:37:49.005Z,18.70
2018-11-06T20:40:19.892Z,18.70
2018-11-06T20:42:55.759Z,18.70
2018-11-06T20:45:25.055Z,18.70
2018-11-06T20:47:54.674Z,18.70
2018-11-06T20:50:25.493Z,18.70
2018-11-06T20:52:56.424Z,18.70
2018-11-06T20:55:26.625Z,18.70
2018-11-06T20:57:56.481Z,18.70
2018-11-06T21:00:26.662Z,18.80
2018-11-06T21:02:57.856Z,18.70
2018-11-06T21:05:26.500Z,18.70
2018-11-06T21:07:55.831Z,18.70
2018-11-06T21:10:25.938Z,18.70
2018-11-06T21:12:57.843Z,18.80
2018-11-06T21:15:26.505Z,18.70
2018-11-06T21:17:55.752Z,18.70
2018-11-06T21:20:24.342Z,18.70
2018-11-06T21:22:52.885Z,18.80
2018-11-06T21:25:23.304Z,18.80
2018-11-06T21:27:51.892Z,18.70
2018-11-06T21:30:21.220Z,18.70
2018-11-06T21:32:51.104Z,18.70
2018-11-06T21:35:20.069Z,18.70
2018-11-06T21:37:48.784Z,18.70
2018-11-06T21:40:18.866Z,18.70
2018-11-06T21:42:47.832Z,18.70
2018-11-06T21:45:17.056Z,18.70
2018-11-06T21:47:46.396Z,18.70
2018-11-06T21:50:15.853Z,18.70
2018-11-06T21:52:44.475Z,18.60
2018-11-06T21:55:14.193Z,18.70
2018-11-06T21:57:43.076Z,18.60
2018-11-06T22:00:14.821Z,18.60
2018-11-06T22:02:44.769Z,18.60
2018-11-06T22:05:14.896Z,18.60
2018-11-06T22:07:43.689Z,18.60
2018-11-06T22:10:13.676Z,18.70
2018-11-06T22:12:43.257Z,18.60
2018-11-06T22:15:13.039Z,18.60
2018-11-06T22:17:41.697Z,18.60
2018-11-06T22:20:12.007Z,18.60
2018-11-06T22:22:41.127Z,18.60
2018-11-06T22:25:09.759Z,18.60
2018-11-06T22:27:38.515Z,18.60
2018-11-06T22:30:08.721Z,18.60
2018-11-06T22:32:37.347Z,18.60
2018-11-06T22:35:08.665Z,18.60
2018-11-06T22:37:37.273Z,18.60
2018-11-06T22:40:06.826Z,18.50
2018-11-06T22:42:35.405Z,18.50
2018-11-06T22:45:04.165Z,18.50
2018-11-06T22:47:32.765Z,18.50
2018-11-06T22:50:01.413Z,18.50
2018-11-06T22:52:30.069Z,18.50
2018-11-06T22:54:58.953Z,18.50
2018-11-06T22:57:27.608Z,18.50
2018-11-06T22:59:56.233Z,18.40
2018-11-06T23:02:24.911Z,18.40
2018-11-06T23:04:53.455Z,18.40
2018-11-06T23:07:27.411Z,18.40
2018-11-06T23:09:56.000Z,18.40
2018-11-06T23:12:24.662Z,18.40
2018-11-06T23:14:53.244Z,18.40
2018-11-06T23:17:21.897Z,18.40
2018-11-06T23:19:50.492Z,18.40
2018-11-06T23:22:19.077Z,18.40
2018-11-06T23:24:47.715Z,18.40
2018-11-06T23:27:16.357Z,18.40
2018-11-06T23:29:44.903Z,18.30
2018-11-06T23:32:13.535Z,18.30
2018-11-06T23:34:42.293Z,18.30
2018-11-06T23:37:10.873Z,18.30
2018-11-06T23:39:39.442Z,18.30
2018-11-06T23:42:08.054Z,18.30
2018-11-06T23:44:36.654Z,18.30
2018-11-06T23:47:05.305Z,18.30
2018-11-06T23:49:33.921Z,18.30
2018-11-06T23:52:02.518Z,18.30
2018-11-06T23:54:31.477Z,18.30
2018-11-06T23:57:00.210Z,18.30
2018-11-06T23:59:28.836Z,18.20
